createdAt,value
2022-09-23T00:01:33.133Z,101525.20
2022-09-23T00:04:01.104Z,101526.20
2022-09-23T00:06:30.264Z,101521.40
2022-09-23T00:08:58.059Z,101520.00
2022-09-23T00:11:28.803Z,101523.60
2022-09-23T00:14:00.119Z,101519.00
2022-09-23T00:16:34.373Z,101517.80
2022-09-23T00:19:06.527Z,101512.00
2022-09-23T00:21:34.255Z,101506.80
2022-09-23T00:24:02.529Z,101505.80
2022-09-23T00:26:30.661Z,101501.20
2022-09-23T00:28:58.753Z,101503.00
2022-09-23T00:31:28.994Z,101499.80
2022-09-23T00:34:02.105Z,101496.40
2022-09-23T00:36:32.651Z,101489.80
2022-09-23T00:39:00.617Z,101492.00
2022-09-23T00:41:28.536Z,101489.00
2022-09-23T00:44:02.390Z,101490.40
2022-09-23T00:46:37.116Z,101490.40
2022-09-23T00:49:26.946Z,101489.60
2022-09-23T00:52:06.145Z,101488.40
2022-09-23T00:54:34.091Z,101477.60
2022-09-23T00:57:05.878Z,101474.80
2022-09-23T00:59:35.821Z,101473.40
2022-09-23T01:02:09.473Z,101473.80
2022-09-23T01:04:38.067Z,101473.60
2022-09-23T01:07:05.869Z,101469.80
2022-09-23T01:09:34.012Z,101468.00
2022-09-23T01:12:10.257Z,101465.20
2022-09-23T01:14:59.584Z,101461.20
2022-09-23T01:17:39.551Z,101458.40
2022-09-23T01:20:39.670Z,101456.80
2022-09-23T01:24:03.458Z,101458.40
2022-09-23T01:26:49.364Z,101458.20
2022-09-23T01:29:39.500Z,101457.40
2022-09-23T01:32:47.283Z,101460.40
2022-09-23T01:35:20.610Z,101452.60
2022-09-23T01:38:00.154Z,101451.60
2022-09-23T01:40:42.708Z,101445.40
2022-09-23T01:43:33.903Z,101443.20
2022-09-23T01:46:10.057Z,101439.60
2022-09-23T01:48:54.246Z,101444.00
2022-09-23T01:51:38.823Z,101440.60
2022-09-23T01:54:18.507Z,101440.40
2022-09-23T01:57:01.744Z,101437.40
2022-09-23T01:59:43.613Z,101429.60
2022-09-23T02:02:16.988Z,101426.00
2022-09-23T02:05:22.081Z,101427.60
2022-09-23T02:08:09.020Z,101425.20
2022-09-23T02:10:45.762Z,101417.40
2022-09-23T02:13:34.765Z,101408.80
2022-09-23T02:16:16.347Z,101409.20
2022-09-23T02:18:53.322Z,101414.20
2022-09-23T02:21:29.672Z,101406.60
2022-09-23T02:24:15.190Z,101404.80
2022-09-23T02:27:01.652Z,101395.80
2022-09-23T02:30:16.495Z,101396.20
2022-09-23T02:33:20.428Z,101389.80
2022-09-23T02:36:08.170Z,101385.80
2022-09-23T02:38:53.152Z,101385.80
2022-09-23T02:41:34.806Z,101383.40
2022-09-23T02:44:12.751Z,101381.20
2022-09-23T02:46:47.023Z,101378.80
2022-09-23T02:49:31.386Z,101375.20
2022-09-23T02:52:04.795Z,101368.80
2022-09-23T02:54:35.445Z,101365.00
2022-09-23T02:57:06.830Z,101361.60
2022-09-23T02:59:39.606Z,101364.80
2022-09-23T03:02:44.799Z,101355.80
2022-09-23T03:05:32.666Z,101351.80
2022-09-23T03:08:43.542Z,101350.80
2022-09-23T03:11:13.760Z,101343.40
2022-09-23T03:13:53.618Z,101341.40
2022-09-23T03:16:44.091Z,101338.60
2022-09-23T03:19:33.328Z,101336.00
2022-09-23T03:22:35.173Z,101330.20
2022-09-23T03:25:10.992Z,101326.20
2022-09-23T03:27:42.510Z,101328.20
2022-09-23T03:30:13.269Z,101331.40
2022-09-23T03:32:47.356Z,101329.80
2022-09-23T03:35:15.271Z,101322.20
2022-09-23T03:38:17.547Z,101320.40
2022-09-23T03:40:50.979Z,101321.80
2022-09-23T03:43:19.355Z,101316.00
2022-09-23T03:45:48.038Z,101313.80
2022-09-23T03:48:16.006Z,101308.40
2022-09-23T03:50:44.563Z,101308.00
2022-09-23T03:53:14.290Z,101317.00
2022-09-23T03:55:43.228Z,101313.80
2022-09-23T03:58:11.330Z,101303.40
2022-09-23T04:00:39.626Z,101303.80
2022-09-23T04:03:11.599Z,101300.40
2022-09-23T04:05:39.864Z,101295.20
2022-09-23T04:08:08.004Z,101298.00
2022-09-23T04:10:36.183Z,101299.40
2022-09-23T04:13:03.936Z,101289.80
2022-09-23T04:15:31.689Z,101281.20
2022-09-23T04:17:59.327Z,101280.20
2022-09-23T04:20:29.119Z,101280.80
2022-09-23T04:22:58.745Z,101279.20
2022-09-23T04:25:26.457Z,101277.40
2022-09-23T04:27:55.175Z,101281.40
2022-09-23T04:30:23.026Z,101273.40
2022-09-23T04:32:55.421Z,101275.20
2022-09-23T04:35:23.294Z,101272.60
2022-09-23T04:37:52.385Z,101269.80
2022-09-23T04:40:20.150Z,101264.40
2022-09-23T04:42:48.006Z,101259.80
2022-09-23T04:45:16.456Z,101264.00
2022-09-23T04:47:44.118Z,101260.00
2022-09-23T04:50:14.868Z,101261.80
2022-09-23T04:52:43.717Z,101260.00
2022-09-23T04:55:11.555Z,101261.60
2022-09-23T04:57:39.675Z,101263.60
2022-09-23T05:00:09.076Z,101259.80
2022-09-23T05:02:48.061Z,101258.00
2022-09-23T05:05:27.053Z,101254.60
2022-09-23T05:07:56.471Z,101255.80
2022-09-23T05:10:24.214Z,101251.60
2022-09-23T05:12:56.921Z,101254.20
2022-09-23T05:15:25.155Z,101254.60
2022-09-23T05:17:53.278Z,101249.60
2022-09-23T05:20:21.638Z,101247.20
2022-09-23T05:22:49.877Z,101241.80
2022-09-23T05:25:17.887Z,101244.20
2022-09-23T05:27:45.679Z,101246.60
2022-09-23T05:30:13.635Z,101245.00
2022-09-23T05:32:41.519Z,101247.40
2022-09-23T05:35:09.386Z,101248.20
2022-09-23T05:37:39.257Z,101245.80
2022-09-23T05:40:07.656Z,101241.80
2022-09-23T05:42:36.364Z,101239.80
2022-09-23T05:45:07.683Z,101242.40
2022-09-23T05:47:39.997Z,101234.60
2022-09-23T05:50:10.403Z,101233.60
2022-09-23T05:52:38.161Z,101238.00
2022-09-23T05:55:07.097Z,101236.80
2022-09-23T05:57:35.357Z,101241.40
2022-09-23T06:00:04.892Z,101243.20
2022-09-23T06:02:33.157Z,101242.80
2022-09-23T06:05:01.158Z,101243.60
2022-09-23T06:07:31.855Z,101237.40
2022-09-23T06:09:59.692Z,101238.60
2022-09-23T06:12:28.404Z,101239.80
2022-09-23T06:14:56.177Z,101237.40
2022-09-23T06:17:23.865Z,101235.20
2022-09-23T06:19:51.992Z,101237.80
2022-09-23T06:22:25.614Z,101233.60
2022-09-23T06:24:53.532Z,101238.60
2022-09-23T06:27:23.097Z,101238.80
2022-09-23T06:29:52.587Z,101238.80
2022-09-23T06:32:20.789Z,101242.20
2022-09-23T06:34:51.902Z,101239.40
2022-09-23T06:37:20.800Z,101232.00
2022-09-23T06:39:49.392Z,101234.00
2022-09-23T06:42:17.426Z,101226.40
2022-09-23T06:44:45.126Z,101230.00
2022-09-23T06:47:12.934Z,101230.80
2022-09-23T06:49:41.766Z,101230.40
2022-09-23T06:52:10.107Z,101230.20
2022-09-23T06:54:39.117Z,101232.80
2022-09-23T06:57:07.192Z,101230.80
2022-09-23T06:59:35.586Z,101231.20
2022-09-23T07:02:03.471Z,101222.80
2022-09-23T07:04:31.538Z,101225.20
2022-09-23T07:06:59.300Z,101226.60
2022-09-23T07:09:29.140Z,101225.20
2022-09-23T07:11:57.217Z,101224.20
2022-09-23T07:14:25.357Z,101225.60
2022-09-23T07:16:54.326Z,101223.00
2022-09-23T07:19:22.128Z,101222.20
2022-09-23T07:21:49.828Z,101219.80
2022-09-23T07:24:18.121Z,101217.20
2022-09-23T07:26:45.938Z,101220.00
2022-09-23T07:29:15.375Z,101217.40
2022-09-23T07:31:43.409Z,101222.00
2022-09-23T07:34:11.914Z,101215.60
2022-09-23T07:36:41.067Z,101218.20
2022-09-23T07:39:12.149Z,101218.80
2022-09-23T07:41:44.411Z,101215.40
2022-09-23T07:44:13.298Z,101216.60
2022-09-23T07:46:41.554Z,101216.80
2022-09-23T07:49:10.795Z,101216.20
2022-09-23T07:51:41.362Z,101213.80
2022-09-23T07:54:14.762Z,101217.00
2022-09-23T07:56:44.461Z,101221.40
2022-09-23T07:59:18.573Z,101225.60
2022-09-23T08:01:52.852Z,101224.20
2022-09-23T08:04:30.982Z,101229.80
2022-09-23T08:07:05.717Z,101232.00
2022-09-23T08:09:43.191Z,101233.00
2022-09-23T08:12:16.468Z,101234.40
2022-09-23T08:14:45.408Z,101232.00
2022-09-23T08:17:13.917Z,101231.40
2022-09-23T08:19:42.224Z,101228.40
2022-09-23T08:22:10.192Z,101224.00
2022-09-23T08:24:38.261Z,101228.80
2022-09-23T08:27:06.385Z,101227.80
2022-09-23T08:29:35.182Z,101226.40
2022-09-23T08:32:03.650Z,101227.00
2022-09-23T08:34:31.688Z,101222.40
2022-09-23T08:36:59.750Z,101225.20
2022-09-23T08:39:27.516Z,101225.00
2022-09-23T08:42:23.875Z,101226.20
2022-09-23T08:45:01.966Z,101224.00
2022-09-23T08:48:02.283Z,101224.00
2022-09-23T08:51:01.624Z,101217.60
2022-09-23T08:53:39.703Z,101216.40
2022-09-23T08:56:22.407Z,101216.60
2022-09-23T08:59:27.078Z,101216.60
2022-09-23T09:02:22.632Z,101215.40
2022-09-23T09:05:00.579Z,101215.80
2022-09-23T09:07:37.498Z,101215.40
2022-09-23T09:10:38.618Z,101213.20
2022-09-23T09:13:32.739Z,101213.00
2022-09-23T09:17:01.263Z,101209.20
2022-09-23T09:19:51.972Z,101204.80
2022-09-23T09:22:40.095Z,101206.20
2022-09-23T09:25:54.527Z,101203.60
2022-09-23T09:28:28.000Z,101207.60
2022-09-23T09:31:01.844Z,101204.20
2022-09-23T09:34:03.472Z,101201.60
2022-09-23T09:36:47.264Z,101197.20
2022-09-23T09:39:16.476Z,101199.80
2022-09-23T09:41:51.926Z,101196.80
2022-09-23T09:44:31.998Z,101197.00
2022-09-23T09:47:29.062Z,101193.00
2022-09-23T09:50:09.080Z,101188.00
2022-09-23T09:52:38.271Z,101190.60
2022-09-23T09:55:14.921Z,101189.40
2022-09-23T09:58:05.929Z,101186.20
2022-09-23T10:00:42.805Z,101181.60
2022-09-23T10:03:26.450Z,101179.60
2022-09-23T10:05:57.934Z,101182.20
2022-09-23T10:08:35.268Z,101176.40
2022-09-23T10:11:23.707Z,101178.40
2022-09-23T10:14:18.991Z,101183.20
2022-09-23T10:17:05.607Z,101176.20
2022-09-23T10:19:43.955Z,101171.00
2022-09-23T10:22:26.350Z,101167.80
2022-09-23T10:24:57.474Z,101166.40
2022-09-23T10:27:35.899Z,101164.40
2022-09-23T10:30:27.553Z,101163.00
2022-09-23T10:32:57.252Z,101161.40
2022-09-23T10:35:28.279Z,101162.00
2022-09-23T10:38:00.394Z,101154.00
2022-09-23T10:40:59.819Z,101148.80
2022-09-23T10:44:11.781Z,101148.40
2022-09-23T10:47:04.182Z,101138.80
2022-09-23T10:50:08.191Z,101139.60
2022-09-23T10:52:58.033Z,101138.40
2022-09-23T10:56:03.758Z,101131.60
2022-09-23T10:59:14.340Z,101130.80
2022-09-23T11:01:59.304Z,101125.00
2022-09-23T11:04:52.683Z,101127.20
2022-09-23T11:07:38.885Z,101127.80
2022-09-23T11:10:35.241Z,101125.00
2022-09-23T11:13:33.111Z,101124.20
2022-09-23T11:16:12.753Z,101124.40
2022-09-23T11:19:17.374Z,101125.00
2022-09-23T11:22:23.487Z,101127.60
2022-09-23T11:25:30.383Z,101125.80
2022-09-23T11:28:17.861Z,101128.80
2022-09-23T11:31:31.693Z,101140.40
2022-09-23T11:34:52.699Z,101139.40
2022-09-23T11:37:30.487Z,101139.60
2022-09-23T11:40:15.583Z,101139.40
2022-09-23T11:43:33.623Z,101147.80
2022-09-23T11:46:23.674Z,101139.20
2022-09-23T11:49:14.257Z,101139.60
2022-09-23T11:52:06.448Z,101140.40
2022-09-23T11:54:50.191Z,101138.60
2022-09-23T11:57:47.072Z,101138.60
2022-09-23T12:00:28.159Z,101141.20
2022-09-23T12:03:30.441Z,101142.00
2022-09-23T12:06:12.610Z,101140.60
2022-09-23T12:08:40.668Z,101132.80
2022-09-23T12:11:39.648Z,101138.40
2022-09-23T12:14:41.805Z,101135.40
2022-09-23T12:18:10.858Z,101134.00
2022-09-23T12:21:05.768Z,101132.00
2022-09-23T12:24:30.225Z,101130.20
2022-09-23T12:27:07.215Z,101120.20
2022-09-23T12:29:37.680Z,101119.20
2022-09-23T12:32:10.199Z,101123.60
2022-09-23T12:34:49.336Z,101123.00
2022-09-23T12:37:38.142Z,101122.00
2022-09-23T12:40:31.229Z,101124.20
2022-09-23T12:43:01.280Z,101118.00
2022-09-23T12:45:34.180Z,101110.80
2022-09-23T12:48:26.910Z,101113.60
2022-09-23T12:51:17.442Z,101106.20
2022-09-23T12:53:53.195Z,101114.00
2022-09-23T12:56:31.523Z,101100.80
2022-09-23T12:59:14.250Z,101102.60
2022-09-23T13:01:42.909Z,101096.60
2022-09-23T13:04:53.820Z,101096.20
2022-09-23T13:07:34.548Z,101087.20
2022-09-23T13:10:34.053Z,101087.40
2022-09-23T13:13:05.430Z,101080.80
2022-09-23T13:15:37.701Z,101078.20
2022-09-23T13:18:24.243Z,101074.00
2022-09-23T13:20:56.896Z,101074.60
2022-09-23T13:23:33.167Z,101066.00
2022-09-23T13:26:12.812Z,101067.20
2022-09-23T13:28:56.034Z,101065.80
2022-09-23T13:31:24.197Z,101065.60
2022-09-23T13:34:03.763Z,101065.40
2022-09-23T13:36:46.532Z,101062.40
2022-09-23T13:39:22.765Z,101056.20
2022-09-23T13:41:56.469Z,101061.20
2022-09-23T13:44:24.897Z,101061.20
2022-09-23T13:47:01.010Z,101055.40
2022-09-23T13:49:35.469Z,101050.80
2022-09-23T13:52:04.221Z,101048.00
2022-09-23T13:54:49.867Z,101049.20
2022-09-23T13:57:34.140Z,101042.80
2022-09-23T14:00:18.691Z,101038.60
2022-09-23T14:02:47.505Z,101040.80
2022-09-23T14:05:33.179Z,101039.40
2022-09-23T14:08:02.214Z,101037.00
2022-09-23T14:10:31.325Z,101036.40
2022-09-23T14:12:59.781Z,101031.40
2022-09-23T14:15:28.401Z,101030.00
2022-09-23T14:18:07.885Z,101022.80
2022-09-23T14:20:50.234Z,101021.80
2022-09-23T14:23:19.109Z,101014.80
2022-09-23T14:25:55.221Z,101015.60
2022-09-23T14:28:27.754Z,101010.40
2022-09-23T14:30:58.750Z,101010.00
2022-09-23T14:33:32.496Z,101006.40
2022-09-23T14:36:30.083Z,101006.00
2022-09-23T14:39:12.587Z,100998.00
2022-09-23T14:41:48.206Z,100992.60
2022-09-23T14:44:25.204Z,100985.20
2022-09-23T14:46:59.342Z,100986.40
2022-09-23T14:49:28.138Z,100984.40
2022-09-23T14:52:00.815Z,100978.40
2022-09-23T14:54:44.091Z,100979.40
2022-09-23T14:57:25.922Z,100979.60
2022-09-23T15:00:09.289Z,100979.20
2022-09-23T15:02:40.276Z,100976.60
2022-09-23T15:05:18.521Z,100972.40
2022-09-23T15:07:56.604Z,100973.00
2022-09-23T15:10:33.772Z,100971.60
2022-09-23T15:13:18.170Z,100969.40
2022-09-23T15:15:47.354Z,100967.60
2022-09-23T15:18:25.594Z,100970.20
2022-09-23T15:21:02.910Z,100970.40
2022-09-23T15:23:41.816Z,100972.20
2022-09-23T15:26:25.868Z,100968.20
2022-09-23T15:28:58.521Z,100966.40
2022-09-23T15:31:26.806Z,100959.80
2022-09-23T15:33:56.044Z,100960.80
2022-09-23T15:36:27.989Z,100959.00
2022-09-23T15:39:05.626Z,100959.60
2022-09-23T15:41:34.031Z,100963.20
2022-09-23T15:44:15.665Z,100960.60
2022-09-23T15:46:52.222Z,100963.40
2022-09-23T15:49:31.947Z,100963.00
2022-09-23T15:52:02.224Z,100964.00
2022-09-23T15:54:34.688Z,100962.40
2022-09-23T15:57:02.766Z,100965.20
2022-09-23T15:59:31.431Z,100961.40
2022-09-23T16:02:06.785Z,100968.20
2022-09-23T16:04:36.011Z,100963.20
2022-09-23T16:07:05.869Z,100965.40
2022-09-23T16:09:33.851Z,100965.60
2022-09-23T16:12:03.342Z,100966.80
2022-09-23T16:14:31.162Z,100967.40
2022-09-23T16:16:58.920Z,100967.80
2022-09-23T16:19:26.920Z,100971.40
2022-09-23T16:21:54.637Z,100972.20
2022-09-23T16:24:27.363Z,100968.20
2022-09-23T16:27:00.018Z,100962.00
2022-09-23T16:29:31.014Z,100962.40
2022-09-23T16:32:00.969Z,100963.20
2022-09-23T16:34:29.620Z,100961.40
2022-09-23T16:36:57.329Z,100956.60
2022-09-23T16:39:25.143Z,100963.00
2022-09-23T16:41:53.023Z,100958.40
2022-09-23T16:44:22.243Z,100960.80
2022-09-23T16:46:50.753Z,100956.80
2022-09-23T16:49:19.035Z,100961.20
2022-09-23T16:51:48.293Z,100966.00
2022-09-23T16:54:17.420Z,100965.80
2022-09-23T16:56:45.864Z,100965.20
2022-09-23T16:59:16.060Z,100969.40
2022-09-23T17:02:03.384Z,100970.40
2022-09-23T17:04:32.616Z,100968.00
2022-09-23T17:07:00.617Z,100971.00
2022-09-23T17:09:30.311Z,100971.80
2022-09-23T17:12:36.754Z,100969.60
2022-09-23T17:15:07.595Z,100974.40
2022-09-23T17:17:37.552Z,100974.20
2022-09-23T17:20:08.912Z,100977.80
2022-09-23T17:22:38.367Z,100975.80
2022-09-23T17:25:07.458Z,100976.00
2022-09-23T17:27:37.302Z,100976.40
2022-09-23T17:30:06.082Z,100980.20
2022-09-23T17:32:34.239Z,100978.20
2022-09-23T17:35:04.833Z,100983.00
2022-09-23T17:37:33.372Z,100982.20
2022-09-23T17:40:02.230Z,100985.60
2022-09-23T17:42:33.449Z,100983.00
2022-09-23T17:45:02.277Z,100982.00
2022-09-23T17:47:33.370Z,100983.80
2022-09-23T17:50:02.064Z,100985.00
2022-09-23T17:52:30.059Z,100981.80
2022-09-23T17:54:57.733Z,100979.40
2022-09-23T17:57:25.820Z,100976.80
2022-09-23T17:59:53.894Z,100980.20
2022-09-23T18:02:25.678Z,100980.60
2022-09-23T18:04:53.985Z,100983.40
2022-09-23T18:07:21.785Z,100982.40
2022-09-23T18:09:49.543Z,100981.40
2022-09-23T18:12:17.338Z,100983.00
2022-09-23T18:14:45.366Z,100983.60
2022-09-23T18:17:14.050Z,100985.40
2022-09-23T18:19:42.589Z,100984.60
2022-09-23T18:22:10.369Z,100983.80
2022-09-23T18:24:41.167Z,100985.40
2022-09-23T18:27:09.667Z,100986.40
2022-09-23T18:29:37.379Z,100986.60
2022-09-23T18:32:05.152Z,100984.80
2022-09-23T18:34:35.533Z,100987.00
2022-09-23T18:37:06.340Z,100987.40
2022-09-23T18:39:43.482Z,100987.80
2022-09-23T18:42:12.052Z,100992.00
2022-09-23T18:44:40.787Z,100994.20
2022-09-23T18:47:28.645Z,100992.40
2022-09-23T18:50:15.841Z,100997.40
2022-09-23T18:52:44.474Z,100997.20
2022-09-23T18:55:12.742Z,100999.40
2022-09-23T18:57:42.480Z,101004.40
2022-09-23T19:00:11.425Z,101005.00
2022-09-23T19:02:39.597Z,101005.80
2022-09-23T19:05:09.464Z,101008.00
2022-09-23T19:07:37.332Z,101006.00
2022-09-23T19:10:05.989Z,101005.20
2022-09-23T19:12:34.610Z,101011.20
2022-09-23T19:15:04.953Z,101012.00
2022-09-23T19:17:34.181Z,101011.60
2022-09-23T19:20:02.314Z,101013.80
2022-09-23T19:22:31.893Z,101022.80
2022-09-23T19:25:06.110Z,101024.20
2022-09-23T19:27:35.949Z,101022.00
2022-09-23T19:30:05.454Z,101029.20
2022-09-23T19:32:34.795Z,101029.40
2022-09-23T19:35:03.022Z,101029.40
2022-09-23T19:37:31.047Z,101033.20
2022-09-23T19:39:58.815Z,101035.00
2022-09-23T19:42:28.243Z,101032.80
2022-09-23T19:44:56.083Z,101034.80
2022-09-23T19:47:24.760Z,101031.60
2022-09-23T19:49:52.662Z,101036.80
2022-09-23T19:52:20.424Z,101033.80
2022-09-23T19:54:48.861Z,101034.20
2022-09-23T19:57:19.522Z,101035.00
2022-09-23T19:59:47.288Z,101034.00
2022-09-23T20:02:15.701Z,101034.00
2022-09-23T20:04:43.639Z,101033.60
2022-09-23T20:07:11.539Z,101031.00
2022-09-23T20:09:39.588Z,101030.00
2022-09-23T20:12:08.365Z,101029.80
2022-09-23T20:14:36.029Z,101033.20
2022-09-23T20:17:04.101Z,101030.00
2022-09-23T20:19:32.171Z,101030.80
2022-09-23T20:22:18.533Z,101040.40
2022-09-23T20:24:56.888Z,101043.80
2022-09-23T20:27:25.762Z,101044.20
2022-09-23T20:29:53.628Z,101047.80
2022-09-23T20:32:22.513Z,101045.60
2022-09-23T20:34:51.012Z,101047.60
2022-09-23T20:37:25.067Z,101043.00
2022-09-23T20:39:53.305Z,101047.20
2022-09-23T20:42:24.444Z,101048.80
2022-09-23T20:44:52.530Z,101053.20
2022-09-23T20:47:24.730Z,101054.00
2022-09-23T20:49:53.764Z,101053.40
2022-09-23T20:52:22.962Z,101052.60
2022-09-23T20:54:53.005Z,101051.20
2022-09-23T20:57:21.151Z,101047.60
2022-09-23T20:59:49.749Z,101042.80
2022-09-23T21:02:17.700Z,101046.00
2022-09-23T21:04:45.962Z,101050.40
2022-09-23T21:07:13.781Z,101049.20
2022-09-23T21:09:42.421Z,101048.00
2022-09-23T21:12:10.333Z,101056.60
2022-09-23T21:14:38.425Z,101060.60
2022-09-23T21:17:07.209Z,101058.60
2022-09-23T21:19:37.624Z,101059.60
2022-09-23T21:22:05.391Z,101053.60
2022-09-23T21:25:03.838Z,101054.60
2022-09-23T21:27:23.371Z,101055.00
2022-09-23T21:29:51.571Z,101051.00
2022-09-23T21:32:19.328Z,101049.60
2022-09-23T21:34:47.630Z,101045.80
2022-09-23T21:37:15.347Z,101048.00
2022-09-23T21:40:03.146Z,101052.00
2022-09-23T21:42:30.855Z,101055.40
2022-09-23T21:44:58.640Z,101054.80
2022-09-23T21:47:26.771Z,101052.00
2022-09-23T21:49:54.486Z,101054.40
2022-09-23T21:52:22.406Z,101058.20
2022-09-23T21:54:50.126Z,101058.60
2022-09-23T21:57:17.806Z,101059.40
2022-09-23T21:59:45.557Z,101054.80
2022-09-23T22:02:13.769Z,101053.80
2022-09-23T22:04:41.540Z,101051.00
2022-09-23T22:07:10.696Z,101053.20
2022-09-23T22:09:40.176Z,101053.80
2022-09-23T22:12:11.694Z,101055.80
2022-09-23T22:14:40.179Z,101056.20
2022-09-23T22:17:11.372Z,101056.00
2022-09-23T22:19:45.990Z,101057.00
2022-09-23T22:22:18.046Z,101052.40
2022-09-23T22:24:48.278Z,101054.60
2022-09-23T22:27:19.629Z,101056.60
2022-09-23T22:30:09.382Z,101054.40
2022-09-23T22:32:54.364Z,101056.60
2022-09-23T22:35:22.714Z,101054.40
2022-09-23T22:37:50.831Z,101055.00
2022-09-23T22:40:18.832Z,101057.80
2022-09-23T22:42:46.703Z,101060.80
2022-09-23T22:45:17.317Z,101062.80
2022-09-23T22:47:46.803Z,101065.40
2022-09-23T22:50:15.475Z,101064.60
2022-09-23T22:52:44.906Z,101060.60
2022-09-23T22:55:13.339Z,101064.40
2022-09-23T22:57:41.943Z,101070.20
2022-09-23T23:00:12.751Z,101070.20
2022-09-23T23:02:42.813Z,101068.80
2022-09-23T23:05:11.466Z,101073.80
2022-09-23T23:07:40.575Z,101075.80
2022-09-23T23:10:10.536Z,101078.20
2022-09-23T23:12:39.537Z,101073.80
2022-09-23T23:15:12.766Z,101073.60
2022-09-23T23:17:43.495Z,101069.20
2022-09-23T23:20:11.582Z,101070.80
2022-09-23T23:22:39.657Z,101071.00
2022-09-23T23:25:09.818Z,101071.60
2022-09-23T23:27:37.656Z,101075.20
2022-09-23T23:30:08.846Z,101074.40
2022-09-23T23:32:36.937Z,101073.80
2022-09-23T23:35:06.036Z,101071.60
2022-09-23T23:37:34.346Z,101076.20
2022-09-23T23:40:03.433Z,101078.80
2022-09-23T23:42:31.582Z,101077.80
2022-09-23T23:44:59.717Z,101078.20
2022-09-23T23:47:27.584Z,101074.40
2022-09-23T23:49:55.312Z,101068.40
2022-09-23T23:52:23.112Z,101069.80
2022-09-23T23:54:51.826Z,101075.20
2022-09-23T23:57:19.522Z,101070.20
2022-09-23T23:59:47.321Z,101072.40
